createdAt,value
2023-04-14T00:02:35.503Z,1.78
2023-04-14T00:05:21.720Z,0.97
2023-04-14T00:08:06.914Z,0.65
2023-04-14T00:10:52.427Z,1.21
2023-04-14T00:13:38.064Z,0.58
2023-04-14T00:16:23.872Z,1.61
2023-04-14T00:19:09.300Z,1.77
2023-04-14T00:25:04.631Z,2.06
2023-04-14T00:27:49.807Z,0.44
2023-04-14T00:30:35.143Z,0.42
2023-04-14T00:33:21.026Z,1.52
2023-04-14T00:36:07.035Z,1.47
2023-04-14T00:38:52.553Z,1.20
2023-04-14T00:41:37.924Z,0.31
2023-04-14T00:44:23.491Z,1.00
2023-04-14T00:47:09.278Z,1.36
2023-04-14T00:49:54.800Z,1.13
2023-04-14T00:52:41.316Z,2.05
2023-04-14T00:55:26.814Z,1.51
2023-04-14T00:58:15.204Z,-0.32
2023-04-14T01:01:01.086Z,-0.15
2023-04-14T01:03:47.673Z,2.11
2023-04-14T01:06:33.121Z,1.05
2023-04-14T01:09:19.252Z,1.37
2023-04-14T01:12:23.717Z,0.85
2023-04-14T01:15:42.639Z,2.28
2023-04-14T01:18:27.836Z,2.31
2023-04-14T01:21:28.718Z,1.69
2023-04-14T01:24:16.871Z,2.32
2023-04-14T01:27:32.619Z,2.34
2023-04-14T01:30:45.465Z,2.36
2023-04-14T01:33:36.678Z,1.31
2023-04-14T01:36:30.383Z,0.51
2023-04-14T01:39:21.348Z,2.46
2023-04-14T01:42:11.305Z,2.51
2023-04-14T01:45:02.443Z,1.31
2023-04-14T01:47:51.678Z,1.21
2023-04-14T01:50:38.933Z,0.94
2023-04-14T01:53:27.126Z,1.20
2023-04-14T01:56:15.962Z,2.21
2023-04-14T01:59:02.719Z,2.41
2023-04-14T02:01:50.975Z,1.32
2023-04-14T02:04:38.296Z,1.15
2023-04-14T02:07:25.937Z,2.35
2023-04-14T02:10:15.208Z,0.66
2023-04-14T02:13:03.998Z,0.11
2023-04-14T02:15:51.169Z,2.28
2023-04-14T02:18:41.344Z,1.62
2023-04-14T02:21:28.985Z,1.35
2023-04-14T02:24:14.998Z,2.21
2023-04-14T02:27:13.780Z,1.86
2023-04-14T02:30:02.450Z,1.51
2023-04-14T02:32:53.111Z,0.98
2023-04-14T02:35:46.289Z,0.86
2023-04-14T02:38:48.180Z,1.04
2023-04-14T02:41:37.840Z,1.69
2023-04-14T02:44:30.050Z,2.11
2023-04-14T02:47:38.207Z,2.07
2023-04-14T02:50:27.148Z,0.63
2023-04-14T02:53:33.992Z,0.11
2023-04-14T02:56:30.187Z,1.45
2023-04-14T02:59:18.136Z,0.63
2023-04-14T03:02:17.877Z,1.83
2023-04-14T03:05:09.596Z,0.95
2023-04-14T03:08:12.068Z,2.01
2023-04-14T03:11:02.640Z,0.86
2023-04-14T03:13:52.953Z,0.61
2023-04-14T03:16:39.878Z,-2.18
2023-04-14T03:19:28.166Z,0.67
2023-04-14T03:22:15.461Z,0.02
2023-04-14T03:25:00.993Z,0.71
2023-04-14T03:27:52.207Z,0.07
2023-04-14T03:30:42.972Z,0.85
2023-04-14T03:33:31.618Z,0.58
2023-04-14T03:36:19.909Z,1.52
2023-04-14T03:39:05.942Z,-0.77
2023-04-14T03:41:56.937Z,1.52
2023-04-14T03:44:43.517Z,1.24
2023-04-14T03:47:29.187Z,0.24
2023-04-14T03:50:21.439Z,1.37
2023-04-14T03:53:10.541Z,0.98
2023-04-14T03:55:58.204Z,2.19
2023-04-14T03:58:45.371Z,0.28
2023-04-14T04:01:33.094Z,2.02
2023-04-14T04:04:18.991Z,0.97
2023-04-14T04:07:06.501Z,0.40
2023-04-14T04:09:53.241Z,0.98
2023-04-14T04:12:42.507Z,0.82
2023-04-14T04:15:28.901Z,0.67
2023-04-14T04:18:17.181Z,0.91
2023-04-14T04:21:04.704Z,2.11
2023-04-14T04:23:54.179Z,1.48
2023-04-14T04:26:39.968Z,2.02
2023-04-14T04:29:26.517Z,0.29
2023-04-14T04:32:12.190Z,1.03
2023-04-14T04:34:58.725Z,1.63
2023-04-14T04:37:45.127Z,0.58
2023-04-14T04:40:38.422Z,1.51
2023-04-14T04:43:29.988Z,0.95
2023-04-14T04:46:25.027Z,1.96
2023-04-14T04:49:10.534Z,-2.59
2023-04-14T04:51:56.024Z,0.80
2023-04-14T04:54:41.782Z,1.40
2023-04-14T04:57:27.262Z,1.11
2023-04-14T05:00:12.991Z,1.15
2023-04-14T05:02:58.671Z,1.58
2023-04-14T05:05:44.091Z,1.79
2023-04-14T05:08:30.016Z,2.04
2023-04-14T05:11:15.489Z,0.49
2023-04-14T05:14:01.288Z,-0.59
2023-04-14T05:16:46.476Z,2.00
2023-04-14T05:19:32.759Z,2.05
2023-04-14T05:22:18.359Z,1.44
2023-04-14T05:25:04.063Z,2.22
2023-04-14T05:27:49.342Z,1.58
2023-04-14T05:30:34.771Z,-0.06
2023-04-14T05:33:20.292Z,2.16
2023-04-14T05:36:06.493Z,0.20
2023-04-14T05:38:51.919Z,-1.38
2023-04-14T05:41:37.351Z,1.41
2023-04-14T05:44:22.657Z,0.92
2023-04-14T05:47:08.065Z,1.77
2023-04-14T05:49:53.348Z,0.90
2023-04-14T05:52:38.659Z,0.37
2023-04-14T05:55:24.158Z,1.52
2023-04-14T05:58:09.483Z,-0.30
2023-04-14T06:00:54.698Z,2.12
2023-04-14T06:03:40.706Z,1.52
2023-04-14T06:06:26.361Z,-1.97
2023-04-14T06:09:11.711Z,1.71
2023-04-14T06:11:57.362Z,0.82
2023-04-14T06:14:42.742Z,1.84
2023-04-14T06:17:28.296Z,2.20
2023-04-14T06:20:13.871Z,2.27
2023-04-14T06:22:59.432Z,0.58
2023-04-14T06:25:44.969Z,2.06
2023-04-14T06:28:30.227Z,2.71
2023-04-14T06:31:15.569Z,2.71
2023-04-14T06:34:01.234Z,2.41
2023-04-14T06:36:46.546Z,2.30
2023-04-14T06:39:32.079Z,2.50
2023-04-14T06:42:17.229Z,2.15
2023-04-14T06:45:02.652Z,2.20
2023-04-14T06:47:48.234Z,2.09
2023-04-14T06:50:33.967Z,2.19
2023-04-14T06:53:19.647Z,2.47
2023-04-14T06:56:06.968Z,3.02
2023-04-14T06:58:52.655Z,2.98
2023-04-14T07:01:38.057Z,2.98
2023-04-14T07:04:23.844Z,1.32
2023-04-14T07:07:09.121Z,2.85
2023-04-14T07:09:54.431Z,2.92
2023-04-14T07:12:40.178Z,2.77
2023-04-14T07:15:25.629Z,1.91
2023-04-14T07:18:11.184Z,2.77
2023-04-14T07:20:57.772Z,1.76
2023-04-14T07:23:43.229Z,2.53
2023-04-14T07:26:28.766Z,1.28
2023-04-14T07:29:14.206Z,1.08
2023-04-14T07:31:59.616Z,0.60
2023-04-14T07:34:45.307Z,1.92
2023-04-14T07:37:30.898Z,1.99
2023-04-14T07:40:16.234Z,1.91
2023-04-14T07:43:01.580Z,2.87
2023-04-14T07:45:47.339Z,2.54
2023-04-14T07:48:35.000Z,3.12
2023-04-14T07:51:20.529Z,1.79
2023-04-14T07:54:09.200Z,2.53
2023-04-14T07:56:54.778Z,2.33
2023-04-14T07:59:39.944Z,3.11
2023-04-14T08:02:25.998Z,3.27
2023-04-14T08:05:12.019Z,2.04
2023-04-14T08:07:57.399Z,3.04
2023-04-14T08:10:42.959Z,2.62
2023-04-14T08:13:28.274Z,3.05
2023-04-14T08:16:13.976Z,0.48
2023-04-14T08:18:59.805Z,2.77
2023-04-14T08:21:45.066Z,4.03
2023-04-14T08:24:30.860Z,4.28
2023-04-14T08:27:16.025Z,2.96
2023-04-14T08:30:01.649Z,4.34
2023-04-14T08:32:47.922Z,2.69
2023-04-14T08:35:39.149Z,2.97
2023-04-14T08:38:27.938Z,4.38
2023-04-14T08:41:14.135Z,2.89
2023-04-14T08:43:59.490Z,3.55
2023-04-14T08:46:49.813Z,4.51
2023-04-14T08:49:45.782Z,4.71
2023-04-14T08:52:33.794Z,4.20
2023-04-14T08:55:19.493Z,4.04
2023-04-14T08:58:07.518Z,4.86
2023-04-14T09:00:54.111Z,3.25
2023-04-14T09:03:40.616Z,0.98
2023-04-14T09:06:27.379Z,5.26
2023-04-14T09:09:13.137Z,2.71
2023-04-14T09:12:00.835Z,5.57
2023-04-14T09:14:46.390Z,5.46
2023-04-14T09:17:32.505Z,5.02
2023-04-14T09:20:38.579Z,4.78
2023-04-14T09:23:23.825Z,5.91
2023-04-14T09:26:09.771Z,5.87
2023-04-14T09:28:55.283Z,5.33
2023-04-14T09:31:40.792Z,6.27
2023-04-14T09:34:26.817Z,5.98
2023-04-14T09:37:12.107Z,5.07
2023-04-14T09:39:57.482Z,4.41
2023-04-14T09:42:43.197Z,5.23
2023-04-14T09:45:56.011Z,6.84
2023-04-14T09:48:55.317Z,6.69
2023-04-14T09:51:41.307Z,6.32
2023-04-14T09:54:27.219Z,7.34
2023-04-14T09:57:25.514Z,5.57
2023-04-14T10:00:31.625Z,7.38
2023-04-14T10:03:16.962Z,6.67
2023-04-14T10:06:09.859Z,5.27
2023-04-14T10:08:56.306Z,5.93
2023-04-14T10:11:41.726Z,7.32
2023-04-14T10:14:27.564Z,6.75
2023-04-14T10:17:13.097Z,6.81
2023-04-14T10:19:59.214Z,7.70
2023-04-14T10:22:44.746Z,7.31
2023-04-14T10:25:31.250Z,6.87
2023-04-14T10:28:17.052Z,7.46
2023-04-14T10:31:08.250Z,7.74
2023-04-14T10:33:54.813Z,8.04
2023-04-14T10:36:40.789Z,8.51
2023-04-14T10:39:26.307Z,7.93
2023-04-14T10:42:12.117Z,7.99
2023-04-14T10:45:08.489Z,8.51
2023-04-14T10:47:56.143Z,7.94
2023-04-14T10:50:47.356Z,7.25
2023-04-14T10:53:38.189Z,7.34
2023-04-14T10:56:24.912Z,8.06
2023-04-14T10:59:10.635Z,7.63
2023-04-14T11:01:57.127Z,7.66
2023-04-14T11:05:21.159Z,8.04
2023-04-14T11:08:16.871Z,8.91
2023-04-14T11:11:04.341Z,7.50
2023-04-14T11:14:10.715Z,8.02
2023-04-14T11:17:04.702Z,8.93
2023-04-14T11:19:54.104Z,8.94
2023-04-14T11:22:41.111Z,7.73
2023-04-14T11:25:26.425Z,8.13
2023-04-14T11:28:12.032Z,8.69
2023-04-14T11:30:59.597Z,8.61
2023-04-14T11:33:45.139Z,7.52
2023-04-14T11:36:30.832Z,8.88
2023-04-14T11:39:25.686Z,8.90
2023-04-14T11:42:12.914Z,9.73
2023-04-14T11:44:58.675Z,9.89
2023-04-14T11:48:04.887Z,9.02
2023-04-14T11:50:50.502Z,8.73
2023-04-14T11:53:36.381Z,8.39
2023-04-14T11:56:21.537Z,9.06
2023-04-14T11:59:07.286Z,8.04
2023-04-14T12:01:53.004Z,8.66
2023-04-14T12:04:39.214Z,8.62
2023-04-14T12:07:24.585Z,9.05
2023-04-14T12:10:10.374Z,8.78
2023-04-14T12:13:03.276Z,9.28
2023-04-14T12:15:48.985Z,8.49
2023-04-14T12:18:34.395Z,8.75
2023-04-14T12:21:20.008Z,8.64
2023-04-14T12:24:05.588Z,8.84
2023-04-14T12:26:51.996Z,8.41
2023-04-14T12:29:37.722Z,7.85
2023-04-14T12:32:23.365Z,8.15
2023-04-14T12:35:09.288Z,8.43
2023-04-14T12:37:54.975Z,9.54
2023-04-14T12:40:45.324Z,8.13
2023-04-14T12:43:38.944Z,9.63
2023-04-14T12:46:24.965Z,7.46
2023-04-14T12:49:29.560Z,9.40
2023-04-14T12:52:35.504Z,9.11
2023-04-14T12:55:23.439Z,7.74
2023-04-14T12:58:09.029Z,8.50
2023-04-14T13:00:54.253Z,9.11
2023-04-14T13:03:50.965Z,9.54
2023-04-14T13:06:36.922Z,5.62
2023-04-14T13:09:22.455Z,7.39
2023-04-14T13:12:08.418Z,9.34
2023-04-14T13:14:54.148Z,5.44
2023-04-14T13:17:39.535Z,9.01
2023-04-14T13:20:24.998Z,8.79
2023-04-14T13:23:10.822Z,9.00
2023-04-14T13:25:56.386Z,6.93
2023-04-14T13:28:42.029Z,9.88
2023-04-14T13:31:27.319Z,9.37
2023-04-14T13:34:12.551Z,9.39
2023-04-14T13:36:57.819Z,9.15
2023-04-14T13:39:43.084Z,10.50
2023-04-14T13:42:28.965Z,9.92
2023-04-14T13:45:14.224Z,11.01
2023-04-14T13:48:00.464Z,10.95
2023-04-14T13:50:45.872Z,10.95
2023-04-14T13:53:31.251Z,10.19
2023-04-14T13:56:16.825Z,10.31
2023-04-14T13:59:02.438Z,10.72
2023-04-14T14:01:48.233Z,10.04
2023-04-14T14:04:35.567Z,9.53
2023-04-14T14:07:21.005Z,9.79
2023-04-14T14:10:07.186Z,8.90
2023-04-14T14:12:52.657Z,9.65
2023-04-14T14:15:38.554Z,9.11
2023-04-14T14:18:24.146Z,8.02
2023-04-14T14:21:09.145Z,8.81
2023-04-14T14:23:54.380Z,8.45
2023-04-14T14:26:39.679Z,7.85
2023-04-14T14:29:25.069Z,7.98
2023-04-14T14:32:10.832Z,7.98
2023-04-14T14:34:56.283Z,7.62
2023-04-14T14:37:42.054Z,8.61
2023-04-14T14:40:28.616Z,7.78
2023-04-14T14:43:14.196Z,8.27
2023-04-14T14:45:59.640Z,8.58
2023-04-14T14:48:45.013Z,8.66
2023-04-14T14:51:31.132Z,8.79
2023-04-14T14:54:16.568Z,9.50
2023-04-14T14:57:02.428Z,8.13
2023-04-14T14:59:48.166Z,8.92
2023-04-14T15:02:33.988Z,8.40
2023-04-14T15:05:19.493Z,8.56
2023-04-14T15:08:05.317Z,7.89
2023-04-14T15:10:51.887Z,7.52
2023-04-14T15:13:37.439Z,8.41
2023-04-14T15:16:22.994Z,8.06
2023-04-14T15:19:08.069Z,8.60
2023-04-14T15:21:53.368Z,6.77
2023-04-14T15:24:38.796Z,8.19
2023-04-14T15:27:24.605Z,8.25
2023-04-14T15:30:10.421Z,8.50
2023-04-14T15:32:55.933Z,7.49
2023-04-14T15:35:41.393Z,7.51
2023-04-14T15:38:26.968Z,7.29
2023-04-14T15:41:12.187Z,8.25
2023-04-14T15:43:57.294Z,7.91
2023-04-14T15:46:42.483Z,7.82
2023-04-14T15:49:28.126Z,8.24
2023-04-14T15:52:13.421Z,7.78
2023-04-14T15:54:58.878Z,8.15
2023-04-14T15:57:44.446Z,7.90
2023-04-14T16:00:30.011Z,7.90
2023-04-14T16:03:15.919Z,7.63
2023-04-14T16:06:03.201Z,7.83
2023-04-14T16:08:48.912Z,8.05
2023-04-14T16:11:34.486Z,7.17
2023-04-14T16:14:19.819Z,8.32
2023-04-14T16:17:05.611Z,7.11
2023-04-14T16:19:52.161Z,7.32
2023-04-14T16:22:38.617Z,6.53
2023-04-14T16:25:24.022Z,6.53
2023-04-14T16:28:09.838Z,7.16
2023-04-14T16:30:58.595Z,6.15
2023-04-14T16:33:44.010Z,7.37
2023-04-14T16:36:29.229Z,7.53
2023-04-14T16:39:14.872Z,8.01
2023-04-14T16:42:00.142Z,6.42
2023-04-14T16:44:45.450Z,7.42
2023-04-14T16:47:30.629Z,7.72
2023-04-14T16:50:16.356Z,7.75
2023-04-14T16:53:01.831Z,7.23
2023-04-14T16:55:47.200Z,7.26
2023-04-14T16:58:32.970Z,7.70
2023-04-14T17:01:18.715Z,7.55
2023-04-14T17:04:06.319Z,6.34
2023-04-14T17:06:51.840Z,6.91
2023-04-14T17:09:37.016Z,6.12
2023-04-14T17:12:22.225Z,5.82
2023-04-14T17:15:07.937Z,6.34
2023-04-14T17:17:54.601Z,5.42
2023-04-14T17:20:39.949Z,6.14
2023-04-14T17:23:25.236Z,6.25
2023-04-14T17:26:11.163Z,6.33
2023-04-14T17:28:56.907Z,6.07
2023-04-14T17:31:42.028Z,6.35
2023-04-14T17:34:28.382Z,6.46
2023-04-14T17:37:13.854Z,5.75
2023-04-14T17:40:00.047Z,6.52
2023-04-14T17:42:45.273Z,6.51
2023-04-14T17:45:31.191Z,6.55
2023-04-14T17:48:16.600Z,6.62
2023-04-14T17:51:03.140Z,6.89
2023-04-14T17:53:48.974Z,5.27
2023-04-14T17:56:34.593Z,7.16
2023-04-14T17:59:20.465Z,7.14
2023-04-14T18:02:06.088Z,6.97
2023-04-14T18:04:51.571Z,7.31
2023-04-14T18:07:36.912Z,6.33
2023-04-14T18:10:22.152Z,6.06
2023-04-14T18:13:07.615Z,7.01
2023-04-14T18:15:53.245Z,6.82
2023-04-14T18:18:38.842Z,5.93
2023-04-14T18:21:24.378Z,7.27
2023-04-14T18:26:58.631Z,7.23
2023-04-14T18:29:44.034Z,7.46
2023-04-14T18:32:29.491Z,7.51
2023-04-14T18:35:15.008Z,7.31
2023-04-14T18:37:59.806Z,5.76
2023-04-14T18:40:46.071Z,7.39
2023-04-14T18:43:32.389Z,6.99
2023-04-14T18:46:18.043Z,7.10
2023-04-14T18:49:04.152Z,7.32
2023-04-14T18:51:49.658Z,7.09
2023-04-14T18:54:34.788Z,6.58
2023-04-14T18:57:20.504Z,6.41
2023-04-14T19:00:06.642Z,5.84
2023-04-14T19:02:52.032Z,5.39
2023-04-14T19:05:37.452Z,6.78
2023-04-14T19:08:22.769Z,6.59
2023-04-14T19:11:08.031Z,5.24
2023-04-14T19:13:53.240Z,6.58
2023-04-14T19:16:38.970Z,5.36
2023-04-14T19:19:24.506Z,5.97
2023-04-14T19:22:10.280Z,6.32
2023-04-14T19:24:55.453Z,6.38
2023-04-14T19:27:43.217Z,4.99
2023-04-14T19:30:29.405Z,5.88
2023-04-14T19:33:15.003Z,5.93
2023-04-14T19:36:00.570Z,5.94
2023-04-14T19:38:45.939Z,5.28
2023-04-14T19:41:31.575Z,5.97
2023-04-14T19:44:16.820Z,5.96
2023-04-14T19:47:02.488Z,4.38
2023-04-14T19:49:48.182Z,5.47
2023-04-14T19:52:34.086Z,4.40
2023-04-14T19:55:19.599Z,5.83
2023-04-14T19:58:05.182Z,5.80
2023-04-14T20:00:52.729Z,3.60
2023-04-14T20:03:38.560Z,4.80
2023-04-14T20:06:43.816Z,4.15
2023-04-14T20:09:29.458Z,5.13
2023-04-14T20:12:14.742Z,4.87
2023-04-14T20:15:00.166Z,5.08
2023-04-14T20:17:45.731Z,5.03
2023-04-14T20:20:30.926Z,5.14
2023-04-14T20:23:16.650Z,4.45
2023-04-14T20:26:02.234Z,4.58
2023-04-14T20:28:47.577Z,5.01
2023-04-14T20:31:33.488Z,4.76
2023-04-14T20:34:20.329Z,4.25
2023-04-14T20:37:05.978Z,4.42
2023-04-14T20:39:51.408Z,1.42
2023-04-14T20:42:36.714Z,3.95
2023-04-14T20:45:22.513Z,4.90
2023-04-14T20:48:08.166Z,4.93
2023-04-14T20:50:53.733Z,4.78
2023-04-14T20:53:39.420Z,4.12
2023-04-14T20:56:24.841Z,3.44
2023-04-14T20:59:10.592Z,4.81
2023-04-14T21:01:56.380Z,3.75
2023-04-14T21:04:42.353Z,3.27
2023-04-14T21:07:27.754Z,4.23
2023-04-14T21:10:13.546Z,4.00
2023-04-14T21:15:29.290Z,3.84
2023-04-14T21:16:04.164Z,3.87
2023-04-14T21:18:54.976Z,4.37
2023-04-14T21:21:40.782Z,3.90
2023-04-14T21:24:26.521Z,4.06
2023-04-14T21:27:12.088Z,3.62
2023-04-14T21:29:57.661Z,2.63
2023-04-14T21:32:43.743Z,4.05
2023-04-14T21:35:29.257Z,4.02
2023-04-14T21:38:14.884Z,2.80
2023-04-14T21:41:00.482Z,3.35
2023-04-14T21:43:46.030Z,3.70
2023-04-14T21:46:32.947Z,3.95
2023-04-14T21:49:19.175Z,3.90
2023-04-14T21:52:04.284Z,2.37
2023-04-14T21:54:50.050Z,3.29
2023-04-14T21:57:48.851Z,3.77
2023-04-14T22:00:35.226Z,3.74
2023-04-14T22:03:20.667Z,2.06
2023-04-14T22:06:06.639Z,3.85
2023-04-14T22:08:52.136Z,2.56
2023-04-14T22:11:38.031Z,3.44
2023-04-14T22:14:23.342Z,1.82
2023-04-14T22:17:09.384Z,2.31
2023-04-14T22:19:54.649Z,1.87
2023-04-14T22:22:42.068Z,3.18
2023-04-14T22:25:28.821Z,2.59
2023-04-14T22:28:14.415Z,1.30
2023-04-14T22:31:01.004Z,2.28
2023-04-14T22:33:46.708Z,2.19
2023-04-14T22:36:32.434Z,2.83
2023-04-14T22:39:18.239Z,1.89
2023-04-14T22:42:03.861Z,2.04
2023-04-14T22:44:49.230Z,2.20
2023-04-14T22:47:34.472Z,2.39
2023-04-14T22:50:20.278Z,1.44
2023-04-14T22:53:06.228Z,2.04
2023-04-14T22:55:53.018Z,2.10
2023-04-14T22:58:38.252Z,1.33
2023-04-14T23:01:24.355Z,2.50
2023-04-14T23:04:09.754Z,1.55
2023-04-14T23:06:55.172Z,2.74
2023-04-14T23:09:40.196Z,2.74
2023-04-14T23:12:25.536Z,2.93
2023-04-14T23:15:11.052Z,2.89
2023-04-14T23:17:56.533Z,1.43
2023-04-14T23:20:42.027Z,2.83
2023-04-14T23:23:27.850Z,2.18
2023-04-14T23:26:13.414Z,2.22
2023-04-14T23:28:59.066Z,2.02
2023-04-14T23:31:44.341Z,2.96
2023-04-14T23:34:29.719Z,1.03
2023-04-14T23:37:15.211Z,1.59
2023-04-14T23:40:00.803Z,2.77
2023-04-14T23:42:46.145Z,1.96
2023-04-14T23:45:31.591Z,2.16
2023-04-14T23:48:16.989Z,1.87
2023-04-14T23:51:14.793Z,2.56
2023-04-14T23:54:00.540Z,2.12
2023-04-14T23:56:45.719Z,1.29
2023-04-14T23:59:30.917Z,2.94
